createdAt,value
2018-11-10T00:00:23.300Z,39.23
2018-11-10T00:02:55.708Z,39.67
2018-11-10T00:05:28.313Z,39.10
2018-11-10T00:08:00.911Z,39.30
2018-11-10T00:10:33.697Z,41.30
2018-11-10T00:13:06.395Z,38.97
2018-11-10T00:15:39.023Z,38.67
2018-11-10T00:18:12.109Z,40.23
2018-11-10T00:20:44.857Z,39.87
2018-11-10T00:23:17.362Z,37.00
2018-11-10T00:25:49.759Z,36.97
2018-11-10T00:28:22.205Z,38.50
2018-11-10T00:30:54.644Z,40.13
2018-11-10T00:33:27.201Z,40.87
2018-11-10T00:35:59.872Z,40.13
2018-11-10T00:38:32.688Z,40.80
2018-11-10T00:41:05.277Z,41.00
2018-11-10T00:43:37.786Z,40.90
2018-11-10T00:46:10.239Z,39.60
2018-11-10T00:48:41.882Z,42.10
2018-11-10T00:51:13.553Z,40.17
2018-11-10T00:53:46.016Z,41.07
2018-11-10T00:56:19.039Z,41.53
2018-11-10T00:58:51.661Z,49.77
2018-11-10T01:01:24.398Z,39.93
2018-11-10T01:03:56.706Z,42.23
2018-11-10T01:06:29.389Z,40.37
2018-11-10T01:09:02.036Z,41.40
2018-11-10T01:11:34.509Z,41.03
2018-11-10T01:14:06.927Z,42.33
2018-11-10T01:16:39.578Z,46.37
2018-11-10T01:19:11.922Z,50.60
2018-11-10T01:21:44.499Z,51.70
2018-11-10T01:24:17.412Z,45.93
2018-11-10T01:26:49.748Z,40.93
2018-11-10T01:29:22.606Z,43.57
2018-11-10T01:31:55.139Z,38.43
2018-11-10T01:34:27.571Z,41.57
2018-11-10T01:37:00.106Z,38.23
2018-11-10T01:39:32.425Z,38.77
2018-11-10T01:42:06.085Z,36.60
2018-11-10T01:44:38.559Z,39.43
2018-11-10T01:47:11.217Z,39.57
2018-11-10T01:49:43.613Z,38.87
2018-11-10T01:52:16.264Z,34.33
2018-11-10T01:54:48.740Z,41.50
2018-11-10T01:57:21.800Z,46.87
2018-11-10T01:59:54.672Z,47.13
2018-11-10T02:02:27.231Z,35.90
2018-11-10T02:04:59.909Z,35.73
2018-11-10T02:07:32.436Z,34.47
2018-11-10T02:10:05.205Z,35.70
2018-11-10T02:12:37.975Z,44.57
2018-11-10T02:15:13.506Z,34.30
2018-11-10T02:17:45.965Z,34.47
2018-11-10T02:20:18.582Z,36.37
2018-11-10T02:22:51.125Z,33.60
2018-11-10T02:25:23.523Z,34.53
2018-11-10T02:27:56.064Z,34.43
2018-11-10T02:30:28.650Z,31.93
2018-11-10T02:33:01.405Z,34.20
2018-11-10T02:35:33.987Z,34.20
2018-11-10T02:38:06.578Z,32.40
2018-11-10T02:40:39.275Z,37.43
2018-11-10T02:43:12.058Z,40.83
2018-11-10T02:45:44.510Z,33.50
2018-11-10T02:48:17.015Z,31.90
2018-11-10T02:50:49.697Z,34.13
2018-11-10T02:53:22.154Z,34.20
2018-11-10T02:55:54.765Z,33.27
2018-11-10T02:58:27.385Z,34.60
2018-11-10T03:01:00.113Z,32.30
2018-11-10T03:03:32.613Z,32.77
2018-11-10T03:06:05.137Z,34.30
2018-11-10T03:08:37.759Z,33.17
2018-11-10T03:11:10.093Z,33.80
2018-11-10T03:13:42.598Z,34.03
2018-11-10T03:16:15.235Z,31.40
2018-11-10T03:18:47.948Z,35.40
2018-11-10T03:21:20.614Z,32.63
2018-11-10T03:23:53.066Z,34.57
2018-11-10T03:26:25.732Z,31.50
2018-11-10T03:28:58.324Z,32.93
2018-11-10T03:31:30.745Z,33.37
2018-11-10T03:34:03.346Z,32.27
2018-11-10T03:36:36.076Z,33.27
2018-11-10T03:39:12.624Z,33.27
2018-11-10T03:41:45.408Z,34.20
2018-11-10T03:44:18.054Z,31.20
2018-11-10T03:46:50.520Z,32.20
2018-11-10T03:49:25.846Z,33.87
2018-11-10T03:51:55.893Z,32.80
2018-11-10T03:54:28.303Z,34.97
2018-11-10T03:57:00.799Z,33.00
2018-11-10T03:59:33.342Z,33.30
2018-11-10T04:02:05.938Z,32.63
2018-11-10T04:04:38.357Z,34.90
2018-11-10T04:07:11.279Z,35.00
2018-11-10T04:09:44.021Z,33.70
2018-11-10T04:12:16.385Z,34.50
2018-11-10T04:14:48.801Z,32.60
2018-11-10T04:17:21.445Z,33.10
2018-11-10T04:19:54.074Z,33.33
2018-11-10T04:22:36.615Z,33.57
2018-11-10T04:25:13.201Z,34.87
2018-11-10T04:27:45.495Z,34.00
2018-11-10T04:30:17.726Z,32.97
2018-11-10T04:32:50.032Z,32.90
2018-11-10T04:35:22.328Z,32.73
2018-11-10T04:37:54.516Z,31.70
2018-11-10T04:40:26.682Z,33.33
2018-11-10T04:42:59.245Z,32.20
2018-11-10T04:45:31.925Z,33.50
2018-11-10T04:48:04.364Z,32.33
2018-11-10T04:50:37.124Z,32.33
2018-11-10T04:53:09.990Z,32.33
2018-11-10T04:55:42.638Z,31.67
2018-11-10T04:58:15.146Z,31.27
2018-11-10T05:00:47.397Z,31.97
2018-11-10T05:03:19.686Z,32.63
2018-11-10T05:05:51.918Z,31.57
2018-11-10T05:08:24.230Z,30.67
2018-11-10T05:10:56.622Z,30.20
2018-11-10T05:13:28.895Z,33.03
2018-11-10T05:16:01.178Z,30.07
2018-11-10T05:18:34.054Z,31.20
2018-11-10T05:21:06.632Z,31.20
2018-11-10T05:23:39.192Z,30.10
2018-11-10T05:26:11.802Z,30.43
2018-11-10T05:28:44.378Z,31.67
2018-11-10T05:31:17.019Z,32.30
2018-11-10T05:33:49.924Z,30.73
2018-11-10T05:36:22.358Z,30.83
2018-11-10T05:38:54.867Z,31.83
2018-11-10T05:41:27.395Z,29.47
2018-11-10T05:44:00.212Z,27.60
2018-11-10T05:46:32.919Z,30.13
2018-11-10T05:49:05.229Z,30.20
2018-11-10T05:51:37.517Z,29.37
2018-11-10T05:54:09.803Z,27.47
2018-11-10T05:56:42.115Z,28.80
2018-11-10T05:59:14.374Z,28.97
2018-11-10T06:01:46.921Z,29.77
2018-11-10T06:04:19.161Z,30.70
2018-11-10T06:06:51.341Z,31.10
2018-11-10T06:09:24.993Z,28.80
2018-11-10T06:11:55.866Z,28.13
2018-11-10T06:14:28.256Z,30.83
2018-11-10T06:17:00.510Z,30.10
2018-11-10T06:19:32.677Z,29.97
2018-11-10T06:22:04.898Z,30.60
2018-11-10T06:24:37.168Z,31.03
2018-11-10T06:27:09.452Z,30.30
2018-11-10T06:29:42.062Z,29.47
2018-11-10T06:32:14.280Z,29.33
2018-11-10T06:34:46.707Z,31.53
2018-11-10T06:37:19.202Z,29.67
2018-11-10T06:39:51.752Z,30.50
2018-11-10T06:42:24.185Z,31.97
2018-11-10T06:44:56.788Z,30.40
2018-11-10T06:47:29.719Z,32.23
2018-11-10T06:50:02.316Z,31.50
2018-11-10T06:52:35.040Z,31.50
2018-11-10T06:55:08.494Z,30.20
2018-11-10T06:57:41.079Z,31.53
2018-11-10T07:00:17.280Z,31.17
2018-11-10T07:02:49.692Z,30.37
2018-11-10T07:05:22.082Z,30.50
2018-11-10T07:07:55.008Z,30.33
2018-11-10T07:10:27.654Z,31.77
2018-11-10T07:13:00.437Z,29.57
2018-11-10T07:15:33.041Z,30.10
2018-11-10T07:18:05.739Z,28.43
2018-11-10T07:20:38.524Z,28.33
2018-11-10T07:23:11.139Z,28.27
2018-11-10T07:25:43.562Z,28.40
2018-11-10T07:28:16.275Z,27.47
2018-11-10T07:30:49.016Z,27.13
2018-11-10T07:33:21.787Z,26.70
2018-11-10T07:35:54.316Z,28.37
2018-11-10T07:38:27.085Z,26.03
2018-11-10T07:40:59.637Z,25.80
2018-11-10T07:43:32.276Z,27.27
2018-11-10T07:46:05.116Z,27.03
2018-11-10T07:48:37.997Z,26.13
2018-11-10T07:51:10.443Z,25.20
2018-11-10T07:53:43.193Z,26.23
2018-11-10T07:56:15.738Z,24.43
2018-11-10T07:58:48.207Z,25.27
2018-11-10T08:01:20.937Z,25.17
2018-11-10T08:03:53.433Z,25.27
2018-11-10T08:06:25.658Z,24.63
2018-11-10T08:08:58.210Z,23.17
2018-11-10T08:11:30.784Z,23.70
2018-11-10T08:14:03.204Z,22.73
2018-11-10T08:16:35.752Z,22.67
2018-11-10T08:19:09.164Z,21.63
2018-11-10T08:21:41.843Z,21.87
2018-11-10T08:24:14.494Z,21.17
2018-11-10T08:26:47.109Z,21.70
2018-11-10T08:29:19.844Z,20.67
2018-11-10T08:31:52.360Z,21.10
2018-11-10T08:34:24.923Z,20.40
2018-11-10T08:36:57.395Z,20.07
2018-11-10T08:39:30.150Z,20.20
2018-11-10T08:42:02.760Z,20.27
2018-11-10T08:44:35.271Z,20.60
2018-11-10T08:47:08.781Z,20.43
2018-11-10T08:49:41.408Z,21.40
2018-11-10T08:52:14.066Z,19.27
2018-11-10T08:54:46.556Z,20.60
2018-11-10T08:57:19.079Z,19.87
2018-11-10T08:59:51.594Z,21.00
2018-11-10T09:02:23.991Z,20.27
2018-11-10T09:04:56.485Z,21.60
2018-11-10T09:07:28.923Z,21.37
2018-11-10T09:10:01.801Z,20.97
2018-11-10T09:12:34.024Z,20.97
2018-11-10T09:15:07.389Z,20.50
2018-11-10T09:17:39.899Z,20.57
2018-11-10T09:20:16.524Z,21.33
2018-11-10T09:22:48.989Z,20.60
2018-11-10T09:25:21.414Z,20.97
2018-11-10T09:27:53.871Z,21.10
2018-11-10T09:30:26.597Z,21.30
2018-11-10T09:32:59.188Z,20.63
2018-11-10T09:35:31.620Z,20.57
2018-11-10T09:38:04.214Z,20.63
2018-11-10T09:40:36.646Z,19.40
2018-11-10T09:43:09.196Z,19.80
2018-11-10T09:45:41.635Z,17.93
2018-11-10T09:48:14.136Z,18.30
2018-11-10T09:50:46.671Z,19.27
2018-11-10T09:53:18.931Z,17.80
2018-11-10T09:55:51.760Z,18.00
2018-11-10T09:58:24.236Z,16.53
2018-11-10T10:00:56.760Z,17.23
2018-11-10T10:03:28.936Z,16.70
2018-11-10T10:06:01.233Z,16.77
2018-11-10T10:08:37.155Z,16.13
2018-11-10T10:11:09.444Z,16.07
2018-11-10T10:13:41.961Z,17.10
2018-11-10T10:16:14.389Z,15.97
2018-11-10T10:18:46.681Z,16.60
2018-11-10T10:21:19.725Z,15.33
2018-11-10T10:23:52.021Z,15.37
2018-11-10T10:26:24.233Z,16.10
2018-11-10T10:28:57.969Z,16.20
2018-11-10T10:31:31.552Z,15.33
2018-11-10T10:34:05.676Z,16.53
2018-11-10T10:36:39.495Z,15.00
2018-11-10T10:39:13.804Z,13.53
2018-11-10T10:41:49.570Z,12.23
2018-11-10T10:44:22.942Z,12.23
2018-11-10T10:47:02.097Z,10.80
2018-11-10T10:49:37.054Z,10.57
2018-11-10T10:52:12.490Z,10.70
2018-11-10T10:54:45.904Z,10.77
2018-11-10T10:57:22.046Z,10.17
2018-11-10T10:59:56.053Z,11.57
2018-11-10T11:02:48.192Z,10.87
2018-11-10T11:05:40.116Z,10.97
2018-11-10T11:08:14.342Z,10.83
2018-11-10T11:10:48.705Z,11.17
2018-11-10T11:13:24.359Z,11.43
2018-11-10T11:15:58.866Z,11.30
2018-11-10T11:18:32.217Z,11.33
2018-11-10T11:21:05.098Z,11.67
2018-11-10T11:23:38.281Z,10.63
2018-11-10T11:26:10.829Z,11.57
2018-11-10T11:28:43.518Z,11.87
2018-11-10T11:31:17.138Z,11.87
2018-11-10T11:33:49.804Z,11.63
2018-11-10T11:36:27.945Z,12.13
2018-11-10T11:39:00.578Z,11.93
2018-11-10T11:41:33.646Z,12.00
2018-11-10T11:44:06.384Z,11.40
2018-11-10T11:46:39.816Z,11.80
2018-11-10T11:49:12.414Z,12.17
2018-11-10T11:51:45.882Z,11.97
2018-11-10T11:54:18.456Z,11.77
2018-11-10T11:56:50.724Z,12.73
2018-11-10T11:59:23.829Z,11.43
2018-11-10T12:01:56.683Z,12.57
2018-11-10T12:04:29.300Z,10.50
2018-11-10T12:07:01.612Z,10.47
2018-11-10T12:09:34.362Z,9.70
2018-11-10T12:12:07.009Z,9.83
2018-11-10T12:14:39.548Z,9.70
2018-11-10T12:17:12.235Z,9.90
2018-11-10T12:19:44.896Z,9.40
2018-11-10T12:22:17.583Z,9.17
2018-11-10T12:24:50.149Z,11.00
2018-11-10T12:27:23.021Z,9.63
2018-11-10T12:29:55.575Z,10.57
2018-11-10T12:32:27.909Z,10.33
2018-11-10T12:35:00.658Z,9.20
2018-11-10T12:37:33.166Z,9.03
2018-11-10T12:40:05.741Z,8.60
2018-11-10T12:42:38.408Z,17.27
2018-11-10T12:45:12.778Z,8.97
2018-11-10T12:47:47.072Z,9.13
2018-11-10T12:50:21.023Z,7.87
2018-11-10T12:53:06.769Z,7.70
2018-11-10T12:55:39.230Z,8.33
2018-11-10T12:58:11.775Z,8.57
2018-11-10T13:00:45.484Z,9.07
2018-11-10T13:03:18.524Z,8.70
2018-11-10T13:05:51.218Z,9.57
2018-11-10T13:08:24.127Z,8.90
2018-11-10T13:10:56.890Z,8.37
2018-11-10T13:13:29.281Z,8.40
2018-11-10T13:16:01.833Z,8.70
2018-11-10T13:18:34.519Z,8.57
2018-11-10T13:21:07.421Z,9.53
2018-11-10T13:23:40.011Z,10.30
2018-11-10T13:26:12.406Z,9.27
2018-11-10T13:28:44.848Z,9.60
2018-11-10T13:31:17.719Z,8.83
2018-11-10T13:33:50.076Z,9.00
2018-11-10T13:36:22.994Z,9.10
2018-11-10T13:38:55.507Z,9.60
2018-11-10T13:41:28.234Z,8.50
2018-11-10T13:44:00.807Z,9.50
2018-11-10T13:46:33.179Z,10.47
2018-11-10T13:49:05.688Z,12.53
2018-11-10T13:51:38.370Z,14.17
2018-11-10T13:54:10.679Z,12.87
2018-11-10T13:56:43.185Z,12.80
2018-11-10T13:59:15.995Z,12.47
2018-11-10T14:01:48.633Z,12.37
2018-11-10T14:04:21.123Z,12.60
2018-11-10T14:06:53.891Z,12.43
2018-11-10T14:09:26.495Z,12.80
2018-11-10T14:11:59.104Z,12.27
2018-11-10T14:14:31.656Z,12.37
2018-11-10T14:17:05.190Z,12.97
2018-11-10T14:19:37.942Z,12.00
2018-11-10T14:22:10.433Z,12.87
2018-11-10T14:24:42.997Z,10.93
2018-11-10T14:27:15.590Z,13.13
2018-11-10T14:29:48.048Z,13.63
2018-11-10T14:32:20.518Z,12.87
2018-11-10T14:34:53.025Z,13.43
2018-11-10T14:37:25.665Z,13.03
2018-11-10T14:39:58.073Z,14.10
2018-11-10T14:42:31.085Z,12.87
2018-11-10T14:45:03.701Z,13.13
2018-11-10T14:47:36.222Z,13.83
2018-11-10T14:50:09.791Z,13.63
2018-11-10T14:52:42.696Z,13.57
2018-11-10T14:55:15.385Z,14.23
2018-11-10T14:57:48.004Z,13.80
2018-11-10T15:00:22.006Z,14.27
2018-11-10T15:02:54.552Z,13.60
2018-11-10T15:05:27.034Z,14.00
2018-11-10T15:07:59.704Z,15.10
2018-11-10T15:10:32.325Z,13.87
2018-11-10T15:13:04.948Z,14.10
2018-11-10T15:15:37.462Z,15.07
2018-11-10T15:18:10.263Z,14.93
2018-11-10T15:20:42.707Z,14.40
2018-11-10T15:23:15.191Z,14.77
2018-11-10T15:25:47.699Z,15.73
2018-11-10T15:28:20.233Z,14.83
2018-11-10T15:30:52.705Z,15.13
2018-11-10T15:33:25.115Z,15.30
2018-11-10T15:35:57.800Z,15.20
2018-11-10T15:38:30.223Z,16.17
2018-11-10T15:41:02.734Z,15.03
2018-11-10T15:43:35.268Z,16.23
2018-11-10T15:46:08.388Z,16.50
2018-11-10T15:48:41.561Z,15.60
2018-11-10T15:51:14.092Z,15.87
2018-11-10T15:53:46.723Z,16.57
2018-11-10T15:56:19.077Z,15.27
2018-11-10T15:58:51.692Z,15.93
2018-11-10T16:01:24.225Z,15.70
2018-11-10T16:03:56.947Z,18.77
2018-11-10T16:06:29.368Z,18.03
2018-11-10T16:09:02.144Z,19.40
2018-11-10T16:11:34.514Z,19.27
2018-11-10T16:14:07.201Z,19.33
2018-11-10T16:16:39.744Z,19.60
2018-11-10T16:19:12.239Z,19.63
2018-11-10T16:21:44.518Z,19.00
2018-11-10T16:24:17.208Z,19.90
2018-11-10T16:26:49.890Z,20.10
2018-11-10T16:29:22.525Z,19.70
2018-11-10T16:31:55.223Z,20.03
2018-11-10T16:34:27.714Z,20.33
2018-11-10T16:37:00.217Z,21.70
2018-11-10T16:39:32.993Z,20.77
2018-11-10T16:42:05.522Z,21.77
2018-11-10T16:44:38.359Z,21.30
2018-11-10T16:47:10.866Z,20.97
2018-11-10T16:49:43.262Z,21.37
2018-11-10T16:52:15.964Z,21.17
2018-11-10T16:54:48.498Z,20.37
2018-11-10T16:57:20.891Z,18.97
2018-11-10T16:59:53.528Z,20.37
2018-11-10T17:02:26.156Z,21.70
2018-11-10T17:04:59.156Z,21.77
2018-11-10T17:07:31.688Z,21.43
2018-11-10T17:10:04.386Z,23.13
2018-11-10T17:12:36.894Z,22.10
2018-11-10T17:15:10.065Z,22.10
2018-11-10T17:17:42.711Z,22.47
2018-11-10T17:20:34.071Z,22.03
2018-11-10T17:23:06.710Z,22.17
2018-11-10T17:25:39.262Z,19.80
2018-11-10T17:28:11.758Z,23.00
2018-11-10T17:30:44.391Z,20.93
2018-11-10T17:33:17.056Z,23.77
2018-11-10T17:35:49.550Z,21.57
2018-11-10T17:38:21.943Z,22.67
2018-11-10T17:40:54.646Z,23.40
2018-11-10T17:43:27.283Z,22.73
2018-11-10T17:45:59.965Z,23.87
2018-11-10T17:48:32.397Z,21.97
2018-11-10T17:51:04.639Z,20.27
2018-11-10T17:53:37.195Z,22.43
2018-11-10T17:56:09.649Z,23.87
2018-11-10T17:58:42.145Z,24.00
2018-11-10T18:01:14.682Z,22.53
2018-11-10T18:03:47.299Z,21.70
2018-11-10T18:06:19.826Z,22.53
2018-11-10T18:08:52.358Z,22.17
2018-11-10T18:11:24.876Z,21.60
2018-11-10T18:13:57.348Z,23.30
2018-11-10T18:16:30.553Z,21.63
2018-11-10T18:19:03.172Z,23.40
2018-11-10T18:21:35.768Z,22.30
2018-11-10T18:24:08.386Z,21.17
2018-11-10T18:26:40.877Z,20.77
2018-11-10T18:29:14.082Z,21.53
2018-11-10T18:31:46.443Z,20.97
2018-11-10T18:34:18.939Z,20.80
2018-11-10T18:36:51.431Z,20.63
2018-11-10T18:39:25.183Z,24.13
2018-11-10T18:41:56.537Z,21.60
2018-11-10T18:44:28.906Z,22.07
2018-11-10T18:47:01.561Z,19.53
2018-11-10T18:49:34.206Z,20.77
2018-11-10T18:52:06.855Z,18.80
2018-11-10T18:54:39.369Z,20.47
2018-11-10T18:57:12.290Z,20.73
2018-11-10T18:59:44.778Z,20.00
2018-11-10T19:02:17.457Z,19.67
2018-11-10T19:04:49.917Z,20.57
2018-11-10T19:07:22.580Z,20.23
2018-11-10T19:09:55.423Z,20.00
2018-11-10T19:12:27.897Z,19.83
2018-11-10T19:15:00.633Z,18.10
2018-11-10T19:17:33.287Z,19.33
2018-11-10T19:20:05.896Z,18.60
2018-11-10T19:22:38.505Z,18.00
2018-11-10T19:25:12.804Z,18.13
2018-11-10T19:27:45.353Z,17.47
2018-11-10T19:30:19.307Z,17.30
2018-11-10T19:32:52.581Z,17.77
2018-11-10T19:35:25.188Z,17.47
2018-11-10T19:37:57.561Z,17.53
2018-11-10T19:40:30.182Z,16.70
2018-11-10T19:43:03.190Z,17.07
2018-11-10T19:45:35.646Z,18.20
2018-11-10T19:48:08.106Z,16.07
2018-11-10T19:50:40.736Z,17.07
2018-11-10T19:53:13.446Z,16.70
2018-11-10T19:55:46.140Z,16.53
2018-11-10T19:58:18.716Z,17.00
2018-11-10T20:00:51.231Z,16.73
2018-11-10T20:03:23.729Z,16.03
2018-11-10T20:05:56.350Z,16.30
2018-11-10T20:08:28.880Z,15.23
2018-11-10T20:11:01.397Z,15.90
2018-11-10T20:13:34.426Z,15.73
2018-11-10T20:16:07.194Z,14.87
2018-11-10T20:18:39.791Z,14.33
2018-11-10T20:21:12.305Z,14.63
2018-11-10T20:23:44.825Z,14.23
2018-11-10T20:26:17.600Z,14.00
2018-11-10T20:28:55.211Z,13.57
2018-11-10T20:31:27.683Z,14.13
2018-11-10T20:34:00.436Z,14.17
2018-11-10T20:36:33.060Z,12.80
2018-11-10T20:39:06.045Z,13.17
2018-11-10T20:41:38.641Z,12.90
2018-11-10T20:44:11.145Z,13.37
2018-11-10T20:46:43.735Z,12.43
2018-11-10T20:49:16.268Z,12.03
2018-11-10T20:51:48.733Z,11.63
2018-11-10T20:54:21.156Z,11.27
2018-11-10T20:56:53.945Z,11.30
2018-11-10T20:59:26.713Z,11.30
2018-11-10T21:01:59.329Z,10.87
2018-11-10T21:04:31.961Z,11.27
2018-11-10T21:07:04.460Z,10.77
2018-11-10T21:09:37.112Z,10.90
2018-11-10T21:12:09.986Z,11.00
2018-11-10T21:14:42.404Z,10.57
2018-11-10T21:17:15.053Z,11.27
2018-11-10T21:19:47.585Z,10.70
2018-11-10T21:22:20.206Z,11.20
2018-11-10T21:24:52.723Z,11.37
2018-11-10T21:27:25.495Z,10.33
2018-11-10T21:29:58.327Z,10.57
2018-11-10T21:32:31.164Z,10.07
2018-11-10T21:35:03.566Z,10.20
2018-11-10T21:37:36.068Z,10.33
2018-11-10T21:40:11.522Z,10.63
2018-11-10T21:42:44.381Z,10.37
2018-11-10T21:45:17.771Z,10.10
2018-11-10T21:47:50.370Z,9.53
2018-11-10T21:50:23.035Z,9.33
2018-11-10T21:52:55.642Z,9.43
2018-11-10T21:55:28.193Z,9.17
2018-11-10T21:58:00.649Z,9.43
2018-11-10T22:00:33.151Z,8.73
2018-11-10T22:03:05.658Z,9.40
2018-11-10T22:05:42.006Z,9.27
2018-11-10T22:08:18.841Z,8.60
2018-11-10T22:10:54.996Z,9.40
2018-11-10T22:13:28.580Z,8.90
2018-11-10T22:16:04.903Z,9.80
2018-11-10T22:18:41.915Z,9.17
2018-11-10T22:21:18.925Z,9.50
2018-11-10T22:23:53.224Z,9.23
2018-11-10T22:26:30.686Z,8.70
2018-11-10T22:29:04.495Z,10.03
2018-11-10T22:31:38.529Z,9.00
2018-11-10T22:34:11.889Z,8.70
2018-11-10T22:36:45.539Z,9.17
2018-11-10T22:39:19.370Z,9.33
2018-11-10T22:41:52.050Z,9.17
2018-11-10T22:44:24.653Z,9.17
2018-11-10T22:46:57.262Z,9.03
2018-11-10T22:49:29.683Z,8.80
2018-11-10T22:52:02.362Z,8.33
2018-11-10T22:54:34.856Z,8.53
2018-11-10T22:57:07.455Z,9.10
2018-11-10T22:59:39.892Z,8.40
2018-11-10T23:02:12.473Z,8.83
2018-11-10T23:04:44.966Z,8.73
2018-11-10T23:07:18.151Z,7.63
2018-11-10T23:09:50.741Z,8.70
2018-11-10T23:12:23.407Z,9.03
2018-11-10T23:14:55.949Z,9.10
2018-11-10T23:17:28.848Z,10.73
2018-11-10T23:20:01.337Z,7.77
2018-11-10T23:22:33.824Z,7.80
2018-11-10T23:25:06.533Z,8.93
2018-11-10T23:27:39.079Z,8.40
2018-11-10T23:30:18.774Z,8.83
2018-11-10T23:32:51.208Z,8.80
2018-11-10T23:35:23.848Z,9.23
2018-11-10T23:37:56.100Z,8.73
2018-11-10T23:40:29.146Z,8.33
2018-11-10T23:43:01.633Z,7.93
2018-11-10T23:45:34.184Z,8.23
2018-11-10T23:48:06.956Z,8.17
2018-11-10T23:50:39.519Z,8.63
2018-11-10T23:53:12.262Z,8.17
2018-11-10T23:55:45.000Z,9.00
2018-11-10T23:58:17.689Z,8.17
